Time;durP1;ratioP1;P1;durP2;ratioP2;P2;SDS_P1;SDS_P2;PMS_P1;PMS_P2;Temp;Humidity;BMP_temperature;BMP_pressure;BME280_temperature;BME280_humidity;BME280_pressure;Samples;Min_cycle;Max_cycle;Signal;HPM_P1;HPM_P2
2022/10/14 00:04:28;;;;;;;38.60;22.50;;;;;;;7.21;73.20;100116.54;216094;1274;140738;-66
2022/10/14 00:09:32;;;;;;;36.20;21.20;;;;;;;7.12;73.26;100120.93;215936;1274;140399;-68
2022/10/14 00:14:36;;;;;;;33.20;22.60;;;;;;;7.09;73.56;100115.27;216078;1274;140174;-68
2022/10/14 00:19:41;;;;;;;36.50;23.90;;;;;;;7.06;73.75;100112.11;216063;1274;142351;-68
2022/10/14 00:24:44;;;;;;;44.00;23.40;;;;;;;7.04;73.32;100106.27;215983;1273;140159;-68
2022/10/14 00:29:48;;;;;;;36.50;22.00;;;;;;;6.99;73.80;100104.98;216152;1273;141250;-68
2022/10/14 00:34:53;;;;;;;32.60;22.30;;;;;;;6.90;73.27;100098.44;216126;1273;142599;-69
2022/10/14 00:39:58;;;;;;;37.70;23.20;;;;;;;6.83;73.44;100096.30;216038;1274;140554;-69
2022/10/14 00:45:13;;;;;;;37.10;24.80;;;;;;;6.81;73.46;100092.02;216031;1274;141274;-69
2022/10/14 00:50:19;;;;;;;35.00;24.30;;;;;;;6.79;73.68;100085.90;215741;1274;141569;-68
2022/10/14 00:55:24;;;;;;;36.00;21.80;;;;;;;6.75;73.74;100087.66;215940;1274;140168;-68
2022/10/14 01:00:29;;;;;;;36.20;22.20;;;;;;;6.71;73.98;100082.52;215826;1274;141362;-70
2022/10/14 01:05:42;;;;;;;30.20;22.90;;;;;;;6.72;73.79;100078.52;215875;1274;141585;-67
2022/10/14 01:10:52;;;;;;;33.80;23.60;;;;;;;6.64;73.97;100071.71;215770;1272;141718;-67
2022/10/14 01:16:08;;;;;;;37.50;22.60;;;;;;;6.61;74.22;100069.70;216037;1274;140897;-66
2022/10/14 01:21:27;;;;;;;33.60;22.60;;;;;;;6.58;74.22;100068.14;216037;1274;141138;-66
2022/10/14 01:27:04;;;;;;;32.00;19.20;;;;;;;6.57;74.45;100067.81;215664;1276;140642;-66
2022/10/14 01:32:15;;;;;;;32.60;20.80;;;;;;;6.60;74.18;100062.44;215806;1274;141374;-66
2022/10/14 01:37:25;;;;;;;31.30;20.40;;;;;;;6.58;74.38;100060.28;215181;1274;140003;-66
2022/10/14 01:42:34;;;;;;;31.40;20.40;;;;;;;6.48;74.33;100058.77;215920;1273;140466;-65
2022/10/14 01:47:40;;;;;;;27.50;19.00;;;;;;;6.39;74.32;100058.16;214750;1274;139947;-64
2022/10/14 01:52:52;;;;;;;30.00;19.60;;;;;;;6.31;73.96;100051.08;216029;1274;140228;-66
2022/10/14 01:57:58;;;;;;;31.40;19.80;;;;;;;6.25;74.40;100047.15;215726;1274;150757;-66
2022/10/14 02:03:03;;;;;;;30.30;19.90;;;;;;;6.22;74.19;100054.55;216151;1274;141573;-67
2022/10/14 02:08:24;;;;;;;31.10;20.40;;;;;;;6.20;74.56;100052.67;216098;1273;139615;-66
2022/10/14 02:13:43;;;;;;;38.20;21.90;;;;;;;6.14;74.75;100042.02;215993;1274;140610;-66
2022/10/14 02:19:08;;;;;;;40.10;24.50;;;;;;;6.23;75.70;100035.38;215829;1273;141062;-68
2022/10/14 02:24:23;;;;;;;40.40;22.60;;;;;;;6.35;76.32;100032.36;215946;1274;140681;-68
2022/10/14 02:29:29;;;;;;;39.90;23.70;;;;;;;6.50;76.51;100032.02;215977;1273;141188;-67
2022/10/14 02:34:36;;;;;;;34.90;21.70;;;;;;;6.65;76.84;100026.14;215973;1273;141169;-67
2022/10/14 02:39:46;;;;;;;32.00;22.20;;;;;;;6.81;76.73;100031.45;216007;1274;140397;-67
2022/10/14 02:44:57;;;;;;;30.40;21.40;;;;;;;6.90;76.89;100032.73;216035;1274;139836;-67
2022/10/14 02:50:03;;;;;;;38.10;23.60;;;;;;;6.93;76.28;100033.91;215862;1273;140308;-67
2022/10/14 02:55:07;;;;;;;41.40;20.50;;;;;;;6.94;76.61;100032.73;215783;1274;141981;-67
2022/10/14 03:00:16;;;;;;;33.60;22.20;;;;;;;6.84;76.39;100030.51;215835;1273;142002;-67
2022/10/14 03:05:20;;;;;;;61.30;23.70;;;;;;;6.68;76.18;100033.33;215957;1273;141949;-66
2022/10/14 03:10:23;;;;;;;34.60;22.80;;;;;;;6.58;75.65;100025.15;216031;1272;140711;-66
2022/10/14 03:15:28;;;;;;;24.70;16.70;;;;;;;6.47;76.13;100027.04;216285;1272;141041;-66
2022/10/14 03:20:31;;;;;;;38.50;22.60;;;;;;;6.42;76.29;100029.52;216116;1274;140122;-66
2022/10/14 03:25:35;;;;;;;36.90;23.60;;;;;;;6.47;76.85;100027.69;215859;1274;140874;-66
2022/10/14 03:30:40;;;;;;;38.40;22.50;;;;;;;6.48;77.06;100023.08;215998;1273;141350;-66
2022/10/14 03:35:43;;;;;;;37.20;22.60;;;;;;;6.53;77.48;100016.66;216040;1273;141019;-66
2022/10/14 03:40:47;;;;;;;35.60;24.60;;;;;;;6.65;77.55;100026.64;215926;1273;141261;-66
2022/10/14 03:45:51;;;;;;;38.90;24.50;;;;;;;6.83;77.69;100022.97;214890;1272;140647;-65
2022/10/14 03:50:55;;;;;;;35.00;25.50;;;;;;;6.89;78.17;100019.76;215918;1274;140513;-66
2022/10/14 03:55:58;;;;;;;30.30;22.50;;;;;;;6.93;77.96;100013.44;216101;1274;140296;-67
2022/10/14 04:01:02;;;;;;;33.00;22.90;;;;;;;7.04;78.43;100008.58;215925;1274;141021;-67
2022/10/14 04:06:06;;;;;;;45.70;27.20;;;;;;;7.13;78.02;100007.38;215529;1272;140705;-67
2022/10/14 04:11:09;;;;;;;33.20;23.80;;;;;;;7.21;78.01;99999.88;214830;1273;140648;-65
2022/10/14 04:16:13;;;;;;;35.30;22.80;;;;;;;7.15;77.88;99989.89;216057;1274;140146;-66
2022/10/14 04:21:16;;;;;;;40.90;23.50;;;;;;;7.11;78.16;99995.02;215806;1274;139424;-67
2022/10/14 04:26:20;;;;;;;40.60;22.80;;;;;;;7.10;77.71;99991.43;215180;1274;141880;-66
2022/10/14 04:31:24;;;;;;;39.40;23.90;;;;;;;7.14;77.91;99984.59;213696;1274;140255;-66
2022/10/14 04:36:28;;;;;;;39.20;25.00;;;;;;;7.21;78.07;99976.17;216080;1274;140205;-66
2022/10/14 04:41:32;;;;;;;33.40;21.80;;;;;;;7.25;78.09;99974.42;215959;1274;140343;-66
2022/10/14 04:46:36;;;;;;;40.30;24.60;;;;;;;7.22;77.86;99970.67;215886;1274;140926;-66
2022/10/14 04:51:40;;;;;;;46.00;24.90;;;;;;;7.18;77.85;99968.19;215959;1274;140334;-66
2022/10/14 04:56:43;;;;;;;45.00;28.10;;;;;;;7.16;77.85;99965.98;215979;1274;140945;-66
2022/10/14 05:01:48;;;;;;;42.00;24.90;;;;;;;7.19;78.39;99964.14;216041;1274;140508;-65
2022/10/14 05:06:52;;;;;;;48.40;26.10;;;;;;;7.29;78.71;99966.02;216129;1274;140116;-66
2022/10/14 05:11:56;;;;;;;41.10;25.90;;;;;;;7.36;78.34;99971.44;216181;1274;139508;-65
2022/10/14 05:17:01;;;;;;;36.50;24.50;;;;;;;7.41;78.20;99962.38;216069;1274;140615;-65
2022/10/14 05:22:06;;;;;;;48.70;26.50;;;;;;;7.28;77.90;99959.41;216164;1273;139981;-65
2022/10/14 05:27:10;;;;;;;40.90;25.60;;;;;;;7.27;78.17;99968.10;216095;1272;140586;-65
2022/10/14 05:32:15;;;;;;;30.50;19.10;;;;;;;7.37;78.22;99963.41;216072;1272;139752;-66
2022/10/14 05:37:19;;;;;;;31.30;23.40;;;;;;;7.28;78.03;99956.54;216024;1273;140777;-66
2022/10/14 05:42:24;;;;;;;49.50;30.00;;;;;;;7.15;78.31;99959.59;216084;1274;140975;-66
2022/10/14 05:47:28;;;;;;;33.80;22.00;;;;;;;7.24;78.84;99951.21;214900;1274;1101199;-66
2022/10/14 05:52:33;;;;;;;43.80;27.90;;;;;;;7.28;78.67;99943.66;215961;1274;140945;-68
2022/10/14 05:57:38;;;;;;;45.60;27.10;;;;;;;7.27;78.71;99943.46;215611;1274;140299;-68
2022/10/14 06:02:41;;;;;;;46.90;28.40;;;;;;;7.40;79.38;99951.85;215964;1274;141270;-67
2022/10/14 06:07:46;;;;;;;43.70;30.00;;;;;;;7.64;79.85;99965.77;216129;1273;141008;-67
2022/10/14 06:12:50;;;;;;;50.30;32.00;;;;;;;7.92;79.81;99967.65;214415;1274;142238;-65
2022/10/14 06:17:54;;;;;;;46.30;30.30;;;;;;;8.12;79.65;99961.55;214607;1274;141237;-65
2022/10/14 06:22:59;;;;;;;49.60;28.30;;;;;;;8.27;79.73;99967.50;216184;1274;140858;-68
2022/10/14 06:28:04;;;;;;;44.60;27.70;;;;;;;8.49;79.60;99967.55;215715;1274;139845;-67
2022/10/14 06:33:08;;;;;;;43.10;25.60;;;;;;;8.67;79.43;99968.23;215979;1274;142626;-67
2022/10/14 06:38:12;;;;;;;45.90;29.00;;;;;;;8.80;79.43;99968.95;216006;1274;140401;-67
2022/10/14 06:43:17;;;;;;;43.70;27.80;;;;;;;8.93;79.38;99970.30;215914;1273;141048;-68
2022/10/14 06:48:21;;;;;;;48.60;31.30;;;;;;;8.97;78.99;99969.20;215911;1274;140886;-67
2022/10/14 06:53:27;;;;;;;45.70;29.30;;;;;;;9.16;79.03;99974.38;215952;1272;141207;-68
2022/10/14 06:58:32;;;;;;;42.70;28.10;;;;;;;9.71;78.96;99975.39;216006;1273;140274;-67
2022/10/14 07:03:38;;;;;;;40.70;27.20;;;;;;;10.46;78.52;99978.63;216062;1274;141581;-67
2022/10/14 07:08:43;;;;;;;35.60;24.50;;;;;;;11.09;78.16;99975.70;215771;1274;141784;-67
2022/10/14 07:13:47;;;;;;;36.60;24.60;;;;;;;11.97;77.58;99979.90;215970;1274;150965;-67
2022/10/14 07:18:51;;;;;;;38.60;25.70;;;;;;;12.55;76.07;99979.41;216176;1274;140233;-67
2022/10/14 07:23:56;;;;;;;39.20;26.80;;;;;;;12.78;75.38;99980.06;216161;1274;140768;-67
2022/10/14 07:29:03;;;;;;;41.50;26.10;;;;;;;13.24;75.35;99976.28;216066;1273;140763;-68
2022/10/14 07:34:06;;;;;;;;;;;;;;;13.70;74.78;99982.75;216153;1273;142491;-67
2022/10/14 07:39:10;;;;;;;35.90;25.80;;;;;;;13.86;73.97;99984.44;216776;1272;126419;-68
2022/10/14 07:44:16;;;;;;;40.00;26.00;;;;;;;13.90;73.29;99983.95;216042;1273;140370;-69
2022/10/14 07:49:21;;;;;;;41.30;25.80;;;;;;;13.95;72.85;99978.29;215999;1273;140818;-68
2022/10/14 07:54:28;;;;;;;37.90;26.20;;;;;;;14.03;73.17;99980.20;213947;1273;140264;-67
2022/10/14 07:59:33;;;;;;;44.90;28.90;;;;;;;13.94;72.60;99979.61;214805;1274;140885;-67
2022/10/14 08:04:36;;;;;;;43.10;28.60;;;;;;;13.84;72.59;99984.10;215520;1274;143025;-67
2022/10/14 08:09:41;;;;;;;40.50;26.90;;;;;;;14.16;73.09;99988.48;215818;1272;140202;-67
2022/10/14 08:14:46;;;;;;;43.00;28.90;;;;;;;14.41;72.39;99998.67;215130;1274;139928;-67
2022/10/14 08:19:50;;;;;;;41.70;26.90;;;;;;;14.62;72.27;99996.59;215465;1274;141363;-67
2022/10/14 08:24:53;;;;;;;45.40;28.00;;;;;;;14.80;71.64;99995.08;215221;1274;141721;-68
2022/10/14 08:29:57;;;;;;;47.40;29.40;;;;;;;14.83;71.50;99998.54;215877;1274;140160;-68
2022/10/14 08:35:01;;;;;;;50.60;29.20;;;;;;;15.06;71.53;99996.56;214983;1274;142263;-68
2022/10/14 08:40:05;;;;;;;38.70;25.80;;;;;;;15.34;71.14;99990.63;215759;1274;140561;-69
2022/10/14 08:45:17;;;;;;;44.00;28.70;;;;;;;15.41;70.17;99988.63;216033;1274;141050;-69
2022/10/14 08:50:24;;;;;;;42.30;28.00;;;;;;;15.28;69.81;99984.09;216055;1274;141692;-69
2022/10/14 08:55:55;;;;;;;41.90;29.50;;;;;;;15.39;70.13;99983.30;215853;1274;141794;-66
2022/10/14 09:01:22;;;;;;;41.20;26.90;;;;;;;15.77;70.27;99980.73;215926;1274;140828;-70
2022/10/14 09:06:32;;;;;;;37.40;24.50;;;;;;;16.02;69.71;99973.92;215468;1274;140432;-68
2022/10/14 09:11:41;;;;;;;53.10;30.20;;;;;;;16.11;68.97;99972.73;215658;1274;140636;-69
2022/10/14 09:16:48;;;;;;;47.60;28.80;;;;;;;16.08;68.78;99972.23;215611;1277;140459;-69
2022/10/14 09:22:00;;;;;;;29.90;22.00;;;;;;;16.40;69.20;99975.83;215834;1274;141527;-66
2022/10/14 09:27:10;;;;;;;36.10;25.60;;;;;;;16.63;68.40;99972.85;216148;1274;140614;-70
2022/10/14 09:32:26;;;;;;;42.40;24.80;;;;;;;16.71;68.03;99969.76;215851;1274;142549;-67
2022/10/14 09:37:35;;;;;;;35.10;24.90;;;;;;;16.76;68.10;99966.32;215622;1274;141603;-71
2022/10/14 09:42:57;;;;;;;34.80;24.70;;;;;;;16.67;67.25;99962.37;216103;1274;141215;-70
2022/10/14 09:48:06;;;;;;;23.70;19.00;;;;;;;16.72;67.37;99960.56;215652;1273;141732;-71
2022/10/14 09:53:31;;;;;;;34.70;22.70;;;;;;;17.04;67.51;99963.54;216064;1274;140760;-68
2022/10/14 09:58:46;;;;;;;41.20;28.80;;;;;;;17.29;67.23;99960.70;215933;1274;139796;-68
2022/10/14 10:03:52;;;;;;;37.40;27.30;;;;;;;17.25;66.62;99961.41;214231;1277;142153;-68
2022/10/14 10:08:59;;;;;;;35.50;26.20;;;;;;;17.19;66.49;99962.42;215925;1274;140454;-67
2022/10/14 10:14:29;;;;;;;36.50;26.20;;;;;;;17.18;66.41;99960.70;214411;1274;141222;-67
2022/10/14 10:19:37;;;;;;;40.70;28.10;;;;;;;17.25;66.43;99959.03;215229;1274;141056;-66
2022/10/14 10:24:45;;;;;;;40.40;28.10;;;;;;;17.13;66.23;99959.91;215897;1274;140210;-66
2022/10/14 10:29:50;;;;;;;36.90;25.20;;;;;;;16.96;65.95;99956.27;215842;1274;142083;-67
2022/10/14 10:35:25;;;;;;;29.40;20.10;;;;;;;17.09;66.33;99956.15;215800;1274;141029;-67
2022/10/14 10:40:50;;;;;;;34.70;23.10;;;;;;;17.42;66.07;99946.91;215730;1274;141313;-67
2022/10/14 10:46:27;;;;;;;27.90;22.70;;;;;;;17.65;65.64;99939.13;214417;1274;140645;-65
2022/10/14 10:51:34;;;;;;;31.90;23.30;;;;;;;17.85;64.95;99938.20;215172;1274;141775;-65
2022/10/14 10:56:51;;;;;;;30.00;20.30;;;;;;;17.99;64.50;99935.27;215354;1274;140177;-67
2022/10/14 11:02:36;;;;;;;30.80;19.50;;;;;;;18.03;63.89;99931.09;216048;1274;140735;-67
2022/10/14 11:13:46;;;;;;;22.70;17.30;;;;;;;18.97;63.69;99918.47;216069;1274;141208;-67
2022/10/14 11:19:17;;;;;;;28.10;20.80;;;;;;;19.29;62.44;99912.95;215945;1273;140546;-67
2022/10/14 11:24:40;;;;;;;22.90;16.40;;;;;;;19.53;62.13;99907.83;215742;1274;141743;-67
2022/10/14 11:30:17;;;;;;;26.70;20.10;;;;;;;19.58;61.48;99906.74;215958;1274;141203;-67
2022/10/14 11:35:53;;;;;;;27.80;21.70;;;;;;;19.72;61.40;99898.83;215671;1274;141011;-66
2022/10/14 11:41:03;;;;;;;27.10;20.40;;;;;;;19.73;60.83;99894.10;215979;1274;140644;-66
2022/10/14 11:46:15;;;;;;;31.30;21.80;;;;;;;19.82;60.65;99893.94;215921;1274;140850;-67
2022/10/14 11:51:52;;;;;;;39.10;25.50;;;;;;;19.82;60.10;99893.81;215748;1274;141364;-67
2022/10/14 11:57:07;;;;;;;34.90;25.90;;;;;;;19.55;60.31;99893.26;214990;1276;140982;-67
2022/10/14 12:02:27;;;;;;;36.60;24.60;;;;;;;19.10;60.41;99888.79;215938;1274;140242;-65
2022/10/14 12:07:38;;;;;;;31.30;23.60;;;;;;;18.81;60.71;99888.88;215911;1274;139763;-67
2022/10/14 12:12:43;;;;;;;31.70;25.20;;;;;;;18.47;60.78;99886.35;214117;1274;139840;-65
2022/10/14 12:18:07;;;;;;;34.70;24.30;;;;;;;18.28;61.37;99882.52;214192;1274;140870;-67
2022/10/14 12:23:47;;;;;;;30.40;22.50;;;;;;;18.12;61.33;99879.02;213706;1274;141801;-68
2022/10/14 12:28:52;;;;;;;39.00;23.40;;;;;;;17.95;61.55;99873.74;215037;1276;141093;-66
2022/10/14 12:34:29;;;;;;;38.40;24.00;;;;;;;17.92;61.77;99869.77;215507;1274;140429;-66
2022/10/14 12:39:40;;;;;;;26.70;20.80;;;;;;;18.03;62.04;99864.98;212864;1274;139830;-67
2022/10/14 12:44:55;;;;;;;27.40;19.50;;;;;;;18.25;62.27;99861.77;215986;1274;140748;-68
2022/10/14 12:50:04;;;;;;;27.80;21.40;;;;;;;18.29;61.52;99860.27;215920;1274;140613;-67
2022/10/14 12:55:16;;;;;;;29.20;20.50;;;;;;;18.32;61.49;99855.13;215816;1274;139730;-67
2022/10/14 13:00:21;;;;;;;33.50;20.90;;;;;;;18.43;61.44;99857.01;216045;1274;141433;-67
2022/10/14 13:05:40;;;;;;;22.30;16.50;;;;;;;18.58;61.24;99848.52;216204;1274;141567;-66
2022/10/14 13:10:44;;;;;;;16.20;12.60;;;;;;;18.70;60.88;99838.37;215884;1274;140529;-67
2022/10/14 13:15:50;;;;;;;18.20;15.30;;;;;;;18.81;60.56;99836.98;216014;1274;141266;-67
2022/10/14 13:20:54;;;;;;;23.40;16.40;;;;;;;18.73;59.79;99832.95;216186;1274;141886;-69
2022/10/14 13:26:05;;;;;;;22.90;17.10;;;;;;;18.46;59.61;99837.92;216013;1274;140011;-69
2022/10/14 13:31:21;;;;;;;20.70;16.60;;;;;;;18.27;60.03;99840.98;215860;1273;141392;-68
2022/10/14 13:36:41;;;;;;;24.20;15.70;;;;;;;18.16;60.29;99843.16;215888;1274;139920;-69
2022/10/14 13:41:47;;;;;;;21.60;16.30;;;;;;;18.09;60.58;99844.70;216193;1273;141094;-66
2022/10/14 13:46:52;;;;;;;23.10;16.20;;;;;;;18.11;60.87;99838.77;215946;1273;139949;-67
2022/10/14 13:52:00;;;;;;;22.30;15.00;;;;;;;18.14;61.14;99835.40;215872;1274;141787;-68
2022/10/14 13:57:14;;;;;;;27.50;15.80;;;;;;;18.18;60.95;99839.41;215970;1274;140295;-70
2022/10/14 14:02:40;;;;;;;16.70;13.70;;;;;;;18.31;60.88;99835.77;215892;1274;140642;-68
2022/10/14 14:07:48;;;;;;;15.60;12.80;;;;;;;18.41;60.81;99833.77;215702;1274;140791;-67
2022/10/14 14:13:13;;;;;;;21.10;14.30;;;;;;;18.36;59.97;99828.85;215889;1274;140832;-66
2022/10/14 14:18:40;;;;;;;18.40;13.60;;;;;;;18.20;60.21;99832.44;216011;1274;142080;-66
2022/10/14 14:24:15;;;;;;;19.20;13.70;;;;;;;18.13;60.18;99825.31;215810;1274;141315;-66
2022/10/14 14:29:21;;;;;;;20.10;14.10;;;;;;;18.03;60.22;99822.55;215910;1273;141080;-65
2022/10/14 14:34:25;;;;;;;;;;;;;;;17.91;60.17;99823.92;215874;1273;140680;-67
2022/10/14 14:39:29;;;;;;;19.50;14.10;;;;;;;17.73;60.44;99822.80;216785;1272;128045;-66
2022/10/14 14:44:34;;;;;;;19.10;13.90;;;;;;;17.60;60.79;99826.41;214563;1274;151842;-66
2022/10/14 14:49:40;;;;;;;26.50;17.20;;;;;;;17.45;61.09;99824.71;215900;1274;139973;-66
2022/10/14 14:54:46;;;;;;;30.60;18.10;;;;;;;17.28;61.53;99825.56;215906;1274;140020;-66
2022/10/14 15:00:06;;;;;;;19.00;15.90;;;;;;;17.15;61.98;99823.83;215735;1274;140574;-66
2022/10/14 15:05:11;;;;;;;25.80;14.70;;;;;;;16.96;62.34;99823.79;216037;1274;139748;-66
2022/10/14 15:10:27;;;;;;;21.10;13.60;;;;;;;16.78;62.68;99816.73;216007;1274;140957;-67
2022/10/14 15:15:33;;;;;;;19.40;13.60;;;;;;;16.57;62.95;99818.11;216177;1274;140577;-68
2022/10/14 15:20:37;;;;;;;15.50;13.50;;;;;;;16.34;63.32;99815.34;216084;1274;139976;-66
2022/10/14 15:25:41;;;;;;;18.50;14.60;;;;;;;16.10;63.60;99815.02;216141;1272;140424;-66
2022/10/14 15:30:54;;;;;;;67.50;24.60;;;;;;;15.89;63.93;99814.20;215927;1274;144774;-67
2022/10/14 15:36:04;;;;;;;30.80;14.80;;;;;;;15.64;64.18;99812.98;215984;1274;139964;-68
2022/10/14 15:41:09;;;;;;;21.60;13.70;;;;;;;15.38;64.55;99815.36;215958;1274;140930;-66
2022/10/14 15:51:36;;;;;;;21.60;13.50;;;;;;;14.68;64.82;99807.11;216216;1273;141255;-66
2022/10/14 15:56:40;;;;;;;17.50;13.80;;;;;;;14.35;65.52;99807.20;216087;1274;140043;-66
2022/10/14 16:01:45;;;;;;;20.50;15.90;;;;;;;14.11;65.93;99803.25;215998;1274;140634;-66
2022/10/14 16:06:54;;;;;;;35.00;18.20;;;;;;;13.95;65.84;99804.58;216044;1274;141481;-65
2022/10/14 16:11:58;;;;;;;31.30;19.80;;;;;;;13.80;66.25;99804.86;216087;1274;140394;-67
2022/10/14 16:17:03;;;;;;;49.00;28.60;;;;;;;13.66;66.19;99806.77;216136;1274;141222;-67
2022/10/14 16:22:09;;;;;;;29.50;18.70;;;;;;;13.51;66.13;99814.91;216094;1274;140644;-68
2022/10/14 16:27:14;;;;;;;21.00;15.10;;;;;;;13.37;66.53;99819.64;216282;1274;140068;-67
2022/10/14 16:32:18;;;;;;;17.50;13.50;;;;;;;13.13;66.51;99819.29;216129;1274;140893;-67
2022/10/14 16:37:26;;;;;;;18.40;14.30;;;;;;;12.82;66.40;99818.82;216006;1274;141635;-67
2022/10/14 16:42:30;;;;;;;17.30;13.60;;;;;;;12.52;66.42;99820.38;216029;1274;141779;-67
2022/10/14 16:47:37;;;;;;;21.10;14.40;;;;;;;12.37;67.04;99819.73;216075;1274;140673;-68
2022/10/14 16:58:10;;;;;;;41.40;21.10;;;;;;;11.94;67.91;99820.27;215888;1273;140833;-67
2022/10/14 17:03:16;;;;;;;44.10;24.20;;;;;;;11.58;68.48;99820.29;216010;1274;142302;-66
2022/10/14 17:08:21;;;;;;;47.80;24.70;;;;;;;11.45;69.19;99823.85;215836;1274;142299;-67
2022/10/14 17:13:26;;;;;;;31.40;21.70;;;;;;;11.46;69.13;99823.42;215829;1274;142568;-66
2022/10/14 17:18:33;;;;;;;47.70;30.70;;;;;;;11.42;68.95;99825.27;214805;1271;141103;-67
2022/10/14 17:23:41;;;;;;;45.90;30.10;;;;;;;11.25;69.21;99823.34;215846;1274;140633;-67
2022/10/14 17:28:46;;;;;;;43.70;30.10;;;;;;;11.05;69.63;99823.64;215861;1274;141551;-65
2022/10/14 17:33:52;;;;;;;39.80;27.40;;;;;;;10.85;69.86;99818.42;215881;1274;141894;-67
2022/10/14 17:38:57;;;;;;;58.60;29.30;;;;;;;10.66;70.04;99816.48;215958;1273;141952;-66
2022/10/14 17:44:01;;;;;;;49.10;28.50;;;;;;;10.59;70.56;99817.73;215888;1274;142658;-68
2022/10/14 17:49:08;;;;;;;42.70;25.10;;;;;;;10.59;70.72;99815.92;215248;1274;626403;-69
2022/10/14 17:54:12;;;;;;;41.40;26.20;;;;;;;10.46;70.72;99812.74;215917;1274;141433;-70
2022/10/14 17:59:16;;;;;;;44.10;28.60;;;;;;;10.38;71.36;99811.26;215922;1274;140409;-66
2022/10/14 18:04:20;;;;;;;50.80;34.20;;;;;;;10.35;71.68;99808.67;215942;1274;141200;-66
2022/10/14 18:09:24;;;;;;;61.40;36.90;;;;;;;10.29;71.96;99806.45;216160;1273;142690;-66
2022/10/14 18:14:29;;;;;;;56.10;34.30;;;;;;;10.26;72.53;99808.20;215958;1273;141129;-70
2022/10/14 18:19:32;;;;;;;63.20;38.10;;;;;;;10.29;72.75;99805.38;216126;1273;140835;-66
2022/10/14 18:24:38;;;;;;;62.80;35.80;;;;;;;10.32;73.24;99802.90;216191;1273;140656;-66
2022/10/14 18:29:43;;;;;;;60.70;33.80;;;;;;;10.43;73.78;99796.42;216098;1273;141092;-66
2022/10/14 18:34:47;;;;;;;51.50;30.70;;;;;;;10.54;73.64;99794.11;215627;1274;141255;-66
2022/10/14 18:39:51;;;;;;;47.10;31.60;;;;;;;10.53;73.66;99789.03;215741;1274;140353;-67
2022/10/14 18:44:55;;;;;;;51.70;33.80;;;;;;;10.57;74.02;99787.89;215940;1274;141261;-66
2022/10/14 18:50:00;;;;;;;60.30;35.70;;;;;;;10.64;74.16;99787.98;215836;1274;164716;-66
2022/10/14 18:55:06;;;;;;;47.90;35.10;;;;;;;10.68;74.51;99786.71;215695;1274;141211;-68
2022/10/14 19:00:12;;;;;;;49.80;33.60;;;;;;;10.68;74.72;99785.65;215774;1274;141733;-67
2022/10/14 19:05:21;;;;;;;50.30;36.90;;;;;;;10.69;74.90;99791.83;215864;1274;141455;-70
2022/10/14 19:10:28;;;;;;;52.70;32.70;;;;;;;10.68;75.19;99791.28;215948;1273;141063;-68
2022/10/14 19:15:42;;;;;;;56.40;36.60;;;;;;;10.65;75.75;99791.00;216148;1273;140885;-66
2022/10/14 19:20:55;;;;;;;69.50;42.50;;;;;;;10.68;76.28;99791.17;215880;1274;142591;-67
2022/10/14 19:26:13;;;;;;;66.20;39.70;;;;;;;10.79;76.71;99791.66;215973;1274;142603;-66
2022/10/14 19:31:31;;;;;;;79.10;43.90;;;;;;;10.88;76.65;99784.27;215757;1274;141731;-66
2022/10/14 19:36:38;;;;;;;71.00;42.90;;;;;;;10.94;76.55;99782.23;215769;1274;141872;-66
2022/10/14 19:41:46;;;;;;;73.80;40.20;;;;;;;10.99;76.49;99783.89;215733;1273;141752;-68
2022/10/14 19:46:51;;;;;;;65.10;40.80;;;;;;;11.00;76.41;99776.69;215888;1272;141499;-67
2022/10/14 19:51:54;;;;;;;59.60;38.60;;;;;;;10.98;76.22;99776.72;215932;1274;141128;-67
2022/10/14 19:56:58;;;;;;;66.60;38.90;;;;;;;10.96;76.26;99772.14;216012;1274;141698;-67
2022/10/14 20:02:05;;;;;;;67.40;42.00;;;;;;;10.97;76.08;99769.61;215791;1274;142593;-66
2022/10/14 20:07:12;;;;;;;71.40;40.30;;;;;;;10.92;75.82;99767.62;215836;1273;140097;-66
2022/10/14 20:12:20;;;;;;;66.40;38.20;;;;;;;10.82;75.55;99770.88;216058;1272;140279;-66
2022/10/14 20:17:31;;;;;;;78.30;40.50;;;;;;;10.71;75.61;99768.89;215857;1271;140953;-66
2022/10/14 20:22:42;;;;;;;57.80;36.10;;;;;;;10.63;75.50;99764.67;216049;1274;141882;-68
2022/10/14 20:28:03;;;;;;;66.40;38.10;;;;;;;10.38;75.50;99762.00;214741;1274;143782;-66
2022/10/14 20:33:09;;;;;;;70.00;36.80;;;;;;;10.18;75.97;99761.80;215966;1274;140848;-67
2022/10/14 20:38:13;;;;;;;54.50;35.80;;;;;;;10.16;76.39;99757.19;215888;1273;142005;-66
2022/10/14 20:43:17;;;;;;;51.70;31.50;;;;;;;10.19;76.67;99758.88;215837;1274;142056;-66
2022/10/14 20:48:21;;;;;;;60.70;31.70;;;;;;;10.26;76.96;99762.10;216140;1273;141300;-66
2022/10/14 20:53:25;;;;;;;59.40;35.60;;;;;;;10.32;77.36;99761.59;216109;1272;140491;-66
2022/10/14 20:58:28;;;;;;;39.10;25.40;;;;;;;10.36;77.35;99757.59;216182;1274;141349;-67
2022/10/14 21:03:32;;;;;;;59.40;31.90;;;;;;;10.36;77.29;99758.12;215985;1275;139910;-68
2022/10/14 21:08:37;;;;;;;51.90;35.30;;;;;;;10.37;77.45;99756.33;216030;1273;141393;-67
2022/10/14 21:13:46;;;;;;;55.00;32.10;;;;;;;10.40;77.47;99757.17;215864;1272;143357;-66
2022/10/14 21:18:54;;;;;;;61.20;34.20;;;;;;;10.42;77.63;99753.97;216097;1274;141001;-68
2022/10/14 21:24:00;;;;;;;53.50;31.00;;;;;;;10.40;77.58;99750.64;215891;1274;140735;-68
2022/10/14 21:29:03;;;;;;;58.60;34.70;;;;;;;10.30;77.54;99746.95;216072;1274;140710;-66
2022/10/14 21:34:09;;;;;;;54.10;33.50;;;;;;;10.26;77.69;99742.64;216117;1274;144083;-66
2022/10/14 21:39:15;;;;;;;51.60;31.80;;;;;;;10.23;77.53;99744.40;215989;1274;142170;-67
2022/10/14 21:44:20;;;;;;;47.70;31.10;;;;;;;10.22;77.57;99740.20;215809;1275;142388;-67
2022/10/14 21:49:24;;;;;;;50.70;32.00;;;;;;;10.17;77.70;99735.82;216049;1274;142430;-67
2022/10/14 21:54:28;;;;;;;47.40;33.20;;;;;;;10.12;77.82;99729.51;215936;1274;140932;-66
2022/10/14 21:59:32;;;;;;;52.80;32.30;;;;;;;10.07;77.87;99726.59;215993;1274;141681;-66
2022/10/14 22:04:37;;;;;;;56.70;34.30;;;;;;;10.15;77.99;99737.30;216024;1274;142044;-68
2022/10/14 22:09:41;;;;;;;53.90;30.80;;;;;;;10.17;77.85;99738.57;216094;1274;141051;-68
2022/10/14 22:14:46;;;;;;;50.30;31.80;;;;;;;10.05;77.95;99737.30;216007;1274;141258;-68
2022/10/14 22:19:49;;;;;;;53.40;32.30;;;;;;;9.97;78.53;99737.48;215506;1276;140067;-66
2022/10/14 22:24:53;;;;;;;50.10;29.00;;;;;;;9.99;78.76;99737.69;215868;1274;140190;-67
2022/10/14 22:29:58;;;;;;;51.60;29.10;;;;;;;9.97;78.78;99737.69;215835;1274;141348;-66
2022/10/14 22:35:02;;;;;;;64.70;34.80;;;;;;;9.95;78.98;99730.67;215944;1274;141078;-67
2022/10/14 22:40:05;;;;;;;49.70;29.60;;;;;;;9.97;79.10;99727.77;215800;1276;140929;-67
2022/10/14 22:45:09;;;;;;;54.70;33.60;;;;;;;10.00;79.19;99723.27;215877;1275;142131;-66
2022/10/14 22:50:15;;;;;;;55.00;30.70;;;;;;;10.05;79.43;99729.58;216043;1274;140856;-66
2022/10/14 22:55:19;;;;;;;52.60;33.10;;;;;;;10.13;79.48;99729.63;215912;1273;140739;-67
2022/10/14 23:00:23;;;;;;;41.70;28.30;;;;;;;10.17;79.55;99733.66;216104;1273;141612;-66
2022/10/14 23:05:27;;;;;;;45.00;28.50;;;;;;;10.14;79.41;99729.71;215969;1274;140990;-67
2022/10/14 23:10:30;;;;;;;49.90;27.40;;;;;;;10.10;79.70;99727.38;216133;1274;140852;-66
2022/10/14 23:15:35;;;;;;;59.50;31.30;;;;;;;10.07;79.61;99723.02;216039;1273;141283;-66
2022/10/14 23:20:41;;;;;;;49.10;31.70;;;;;;;10.08;79.68;99720.37;215966;1274;141677;-66
2022/10/14 23:25:45;;;;;;;50.40;28.60;;;;;;;10.07;79.77;99717.00;216060;1273;162309;-67
2022/10/14 23:30:49;;;;;;;52.30;31.40;;;;;;;10.02;79.77;99715.23;216015;1274;140832;-67